Time;durP1;ratioP1;P1;durP2;ratioP2;P2;SDS_P1;SDS_P2;PMS_P1;PMS_P2;Temp;Humidity;BMP_temperature;BMP_pressure;BME280_temperature;BME280_humidity;BME280_pressure;Samples;Min_cycle;Max_cycle;Signal;HPM_P1;HPM_P2
2022/05/18 00:01:25;;;;;;;6.72;3.33;;;17.30;56.50;;;13.52;74.14;95902.91;5073614;28;20514;-56
2022/05/18 00:03:52;;;;;;;4.97;3.47;;;17.20;56.70;;;13.48;74.56;95907.22;5073601;28;20036;-56
2022/05/18 00:06:17;;;;;;;4.57;3.25;;;17.10;56.80;;;13.38;75.56;95905.38;5071889;28;20020;-57
2022/05/18 00:08:51;;;;;;;4.63;3.20;;;17.00;57.10;;;13.39;75.12;95909.66;5073543;28;20024;-53
2022/05/18 00:11:19;;;;;;;5.28;3.38;;;17.00;57.40;;;13.34;75.50;95915.03;5073231;28;20028;-57
2022/05/18 00:13:50;;;;;;;6.95;3.50;;;16.90;57.40;;;13.29;75.37;95907.03;5073765;28;20056;-57
2022/05/18 00:16:19;;;;;;;5.72;3.38;;;16.90;57.60;;;13.29;75.80;95910.50;5055763;28;20033;-53
2022/05/18 00:18:45;;;;;;;5.22;2.95;;;16.80;57.70;;;13.32;75.85;95917.97;5055707;28;20027;-55
2022/05/18 00:21:15;;;;;;;4.20;3.22;;;16.80;57.90;;;13.30;76.21;95913.97;5055512;28;20021;-56
2022/05/18 00:23:46;;;;;;;4.68;3.92;;;16.80;58.10;;;13.23;76.58;95914.25;5056082;28;20470;-54
2022/05/18 00:26:12;;;;;;;5.30;3.78;;;16.80;58.40;;;13.18;75.95;95925.75;5055402;28;20028;-57
2022/05/18 00:28:38;;;;;;;6.93;3.85;;;16.80;58.50;;;13.18;75.80;95917.72;5055211;28;20103;-54
2022/05/18 00:31:04;;;;;;;5.65;3.92;;;16.70;58.50;;;13.13;76.00;95923.09;5055126;28;20031;-57
2022/05/18 00:33:31;;;;;;;5.38;4.03;;;16.70;58.60;;;13.06;76.05;95919.88;5054971;28;20144;-56
2022/05/18 00:35:57;;;;;;;7.60;4.07;;;16.70;58.70;;;13.07;76.68;95926.84;5054815;28;20021;-54
2022/05/18 00:38:23;;;;;;;4.63;4.03;;;16.60;58.80;;;12.93;77.23;95910.56;5051626;28;20083;-56
2022/05/18 00:40:53;;;;;;;7.65;4.15;;;16.60;59.00;;;12.89;77.55;95904.16;5046872;28;20413;-56
2022/05/18 00:43:43;;;;;;;7.80;4.10;;;16.50;59.30;;;12.80;78.39;95911.13;5070630;28;20398;-58
2022/05/18 00:46:14;;;;;;;6.65;4.30;;;16.50;60.00;;;12.92;78.47;95908.19;5038269;28;20020;-57
2022/05/18 00:48:42;;;;;;;4.65;3.83;;;16.50;60.40;;;13.06;77.51;95903.03;5052764;28;20086;-57
2022/05/18 00:51:47;;;;;;;6.03;3.72;;;16.50;60.60;;;13.28;76.39;95908.88;5048522;28;20093;-58
2022/05/18 00:54:28;;;;;;;4.60;3.03;;;16.50;60.90;;;13.52;75.54;95918.97;5069638;28;20036;-58
2022/05/18 00:57:38;;;;;;;4.47;2.97;;;16.70;60.90;;;13.60;74.81;95905.00;5035848;28;20029;-58
2022/05/18 01:00:19;;;;;;;8.55;3.90;;;16.70;60.60;;;13.71;74.38;95911.13;4976926;28;20495;-58
2022/05/18 01:02:55;;;;;;;5.13;3.55;;;16.90;60.60;;;13.72;74.76;95912.69;5052294;28;20025;-58
2022/05/18 01:05:28;;;;;;;5.85;3.53;;;16.90;60.40;;;13.74;74.48;95903.31;5045094;28;20433;-57
2022/05/18 01:07:57;;;;;;;7.57;3.92;;;16.90;60.20;;;13.80;73.82;95901.44;5038178;28;20448;-56
2022/05/18 01:10:29;;;;;;;6.57;3.72;;;17.00;60.10;;;13.89;73.34;95900.56;5021630;28;20035;-56
2022/05/18 01:12:57;;;;;;;7.63;4.10;;;17.10;60.20;;;13.94;73.13;95905.06;5072153;28;20074;-55
2022/05/18 01:15:29;;;;;;;5.97;3.78;;;17.10;60.00;;;13.97;72.98;95912.56;5054625;28;20550;-56
2022/05/18 01:17:58;;;;;;;6.43;3.75;;;17.20;59.90;;;14.02;72.96;95911.72;5054322;28;20074;-57
2022/05/18 01:20:29;;;;;;;4.85;3.70;;;17.30;59.80;;;14.03;72.82;95911.44;5038080;28;20035;-54
2022/05/18 01:23:46;;;;;;;5.65;3.65;;;17.30;59.80;;;14.04;72.95;95918.41;5054747;28;20103;-55
2022/05/18 01:26:43;;;;;;;4.40;3.60;;;17.40;59.80;;;14.09;72.70;95929.09;5027264;28;20048;-55
2022/05/18 01:29:19;;;;;;;5.82;3.95;;;17.40;59.60;;;14.10;72.54;95928.03;5053219;28;20479;-58
2022/05/18 01:31:57;;;;;;;7.38;3.70;;;17.40;59.50;;;14.07;72.78;95925.91;5053838;28;20528;-53
2022/05/18 01:34:27;;;;;;;8.60;4.40;;;17.40;59.30;;;13.99;73.30;95928.34;5038319;28;20151;-57
2022/05/18 01:36:53;;;;;;;5.78;3.90;;;17.40;59.20;;;13.89;73.34;95929.22;5072166;28;20395;-56
2022/05/18 01:39:56;;;;;;;6.22;4.63;;;17.30;59.10;;;13.70;74.61;95936.28;5054118;28;20036;-58
2022/05/18 01:42:33;;;;;;;6.28;4.13;;;17.30;59.40;;;13.59;75.21;95939.00;5067799;28;20483;-56
2022/05/18 01:45:03;;;;;;;6.10;4.07;;;17.30;59.30;;;13.56;75.14;95941.41;5072002;28;20150;-56
2022/05/18 01:47:38;;;;;;;6.60;4.30;;;17.20;59.40;;;13.54;75.10;95939.03;5054973;28;20416;-57
2022/05/18 01:50:10;;;;;;;7.75;4.45;;;17.10;59.50;;;13.45;75.41;95940.69;5074894;28;20078;-56
2022/05/18 01:52:37;;;;;;;7.28;5.05;;;17.10;59.60;;;13.45;75.88;95942.56;5058321;28;20021;-58
2022/05/18 01:55:04;;;;;;;8.63;3.90;;;17.00;59.80;;;13.43;75.78;95942.81;5058130;28;20035;-58
2022/05/18 01:57:37;;;;;;;8.98;4.25;;;17.00;60.00;;;13.40;75.78;95932.66;5076023;28;20029;-57
2022/05/18 02:00:07;;;;;;;7.43;4.72;;;16.90;60.20;;;13.37;75.84;95935.88;5058064;28;20157;-56
2022/05/18 02:02:33;;;;;;;7.10;4.25;;;16.90;60.30;;;13.37;76.00;95941.22;5041317;28;20043;-53
2022/05/18 02:04:58;;;;;;;6.63;4.22;;;16.90;60.40;;;13.37;75.93;95946.59;5057481;28;20028;-56
2022/05/18 02:07:24;;;;;;;4.97;4.45;;;16.90;60.40;;;13.39;76.15;95944.44;5057345;28;20025;-56
2022/05/18 02:09:59;;;;;;;7.15;4.75;;;16.80;60.60;;;13.37;75.99;95947.38;5054392;28;20383;-53
2022/05/18 02:12:34;;;;;;;12.80;4.43;;;16.90;60.80;;;13.33;76.09;95951.69;5029689;28;20044;-56
2022/05/18 02:15:00;;;;;;;8.13;5.22;;;16.80;60.80;;;13.30;76.28;95954.91;5038057;28;20025;-56
2022/05/18 02:17:31;;;;;;;6.40;4.75;;;16.80;60.60;;;13.17;76.90;95958.13;5058049;28;20398;-56
2022/05/18 02:19:59;;;;;;;7.10;4.70;;;16.80;60.70;;;13.01;77.54;95948.53;5075754;28;20025;-57
2022/05/18 02:22:26;;;;;;;6.20;4.55;;;16.70;60.70;;;13.05;77.87;95963.75;5058012;28;20043;-58
2022/05/18 02:25:01;;;;;;;8.02;5.03;;;16.70;60.90;;;13.02;77.33;95961.63;5075461;28;20107;-57
2022/05/18 02:27:30;;;;;;;8.18;5.13;;;16.60;60.90;;;12.94;77.00;95963.00;5057479;28;20028;-52
2022/05/18 02:29:56;;;;;;;10.02;5.20;;;16.60;61.00;;;12.82;77.75;95961.66;5075774;28;20114;-52
2022/05/18 02:32:22;;;;;;;6.90;4.70;;;16.50;60.90;;;12.77;77.78;95972.34;5057124;28;20105;-52
2022/05/18 02:34:48;;;;;;;7.07;4.80;;;16.40;61.10;;;12.66;78.66;95972.38;5057522;28;20483;-50
2022/05/18 02:37:17;;;;;;;9.48;5.18;;;16.40;61.20;;;12.57;79.32;95973.19;5056329;28;20028;-52
2022/05/18 02:39:43;;;;;;;8.95;5.32;;;16.30;61.40;;;12.48;80.15;95978.25;5055209;28;20047;-50
2022/05/18 02:42:12;;;;;;;8.02;5.22;;;16.20;61.50;;;12.43;80.05;95978.22;5053979;28;20029;-50
2022/05/18 02:44:38;;;;;;;9.32;4.97;;;16.10;61.70;;;12.37;79.60;95979.28;5053834;28;20025;-50
2022/05/18 02:47:04;;;;;;;6.28;5.22;;;16.00;61.70;;;12.27;80.11;95972.06;5053815;28;20033;-51
2022/05/18 02:49:31;;;;;;;7.03;5.25;;;16.00;62.00;;;12.24;81.36;95977.94;5053891;28;20067;-52
2022/05/18 02:51:57;;;;;;;9.50;5.55;;;15.90;62.20;;;12.20;80.88;95976.88;5053843;28;20057;-52
2022/05/18 02:57:19;;;;;;;6.70;5.13;;;15.80;62.80;;;12.09;81.24;95981.38;5040056;28;20098;-50
2022/05/18 02:59:51;;;;;;;8.25;5.78;;;15.70;62.70;;;12.07;81.16;95977.41;5053649;28;20053;-52
2022/05/18 03:02:17;;;;;;;9.77;5.57;;;15.70;62.80;;;12.04;81.71;95976.84;5037074;28;20044;-53
2022/05/18 03:04:42;;;;;;;9.65;6.40;;;15.60;62.90;;;12.02;81.57;95976.28;5054732;28;20025;-50
2022/05/18 03:07:14;;;;;;;7.40;5.60;;;15.60;63.10;;;11.93;82.51;95980.53;5053478;28;20021;-50
2022/05/18 03:09:40;;;;;;;10.63;6.20;;;15.60;63.40;;;11.94;82.62;95981.34;5054388;28;20029;-51
2022/05/18 03:12:10;;;;;;;6.95;5.72;;;15.60;63.60;;;11.96;82.12;95972.00;5053402;28;20025;-56
2022/05/18 03:14:35;;;;;;;10.82;6.13;;;15.60;63.90;;;11.93;81.84;95979.75;5054556;28;20099;-51
2022/05/18 03:17:05;;;;;;;9.93;6.30;;;15.50;63.70;;;11.84;82.42;95982.09;5036676;28;20121;-51
2022/05/18 03:19:36;;;;;;;9.48;6.07;;;15.50;63.90;;;11.79;82.72;95982.88;5036767;28;20040;-50
2022/05/18 03:24:46;;;;;;;8.88;5.63;;;15.40;64.00;;;11.67;82.80;95987.66;5065012;28;20044;-56
2022/05/18 03:27:17;;;;;;;6.70;5.90;;;15.40;64.10;;;11.70;82.52;95991.66;5036630;28;20037;-53
2022/05/18 03:29:46;;;;;;;8.25;6.30;;;15.40;64.40;;;11.64;82.24;95988.16;5059993;28;20036;-50
2022/05/18 03:32:13;;;;;;;8.88;6.10;;;15.30;64.20;;;11.57;82.72;95998.28;5058316;28;20379;-51
2022/05/18 03:34:39;;;;;;;10.23;6.00;;;15.30;64.30;;;11.54;83.19;95996.94;5056163;28;20037;-51
2022/05/18 03:37:08;;;;;;;8.60;5.85;;;15.20;64.40;;;11.50;83.65;95995.84;5056380;28;20055;-49
2022/05/18 03:39:36;;;;;;;9.88;6.13;;;15.20;64.70;;;11.49;83.29;96001.44;5072975;28;20109;-53
2022/05/18 03:42:03;;;;;;;9.38;6.18;;;15.20;64.70;;;11.45;84.15;95998.50;5056318;28;20032;-51
2022/05/18 03:44:28;;;;;;;9.82;6.38;;;15.10;64.70;;;11.44;83.57;95998.72;5056198;28;20109;-49
2022/05/18 03:46:57;;;;;;;11.15;6.10;;;15.10;64.90;;;11.39;83.71;96006.72;5056090;28;20056;-51
2022/05/18 03:49:23;;;;;;;9.13;7.10;;;15.10;65.00;;;11.33;83.69;96001.34;5073746;28;20025;-52
2022/05/18 03:51:49;;;;;;;9.75;6.32;;;15.00;64.90;;;11.34;85.30;96002.16;5055794;28;20021;-50
2022/05/18 03:54:16;;;;;;;10.40;6.45;;;15.00;65.40;;;11.51;85.24;96005.47;5055903;28;20024;-49
2022/05/18 03:56:45;;;;;;;8.32;5.75;;;15.10;66.80;;;11.66;84.72;95999.38;5039615;28;20503;-51
2022/05/18 03:59:18;;;;;;;10.88;5.85;;;15.10;66.50;;;11.90;83.80;96002.41;5055940;28;20028;-51
2022/05/18 04:01:43;;;;;;;10.20;6.05;;;15.30;66.90;;;12.03;83.08;96003.78;5073668;28;20062;-50
2022/05/18 04:04:15;;;;;;;9.02;5.90;;;15.40;66.60;;;12.10;82.60;95999.03;5056021;28;20041;-50
2022/05/18 04:06:44;;;;;;;7.25;5.65;;;15.50;66.50;;;12.19;82.08;96004.63;5055681;28;20028;-50
2022/05/18 04:09:13;;;;;;;8.38;5.55;;;15.60;66.30;;;12.24;81.79;96004.66;5055706;28;20417;-52
2022/05/18 04:11:38;;;;;;;10.25;6.05;;;15.70;65.90;;;12.20;81.75;96009.72;5054985;28;20434;-51
2022/05/18 04:14:07;;;;;;;12.88;5.80;;;15.80;65.60;;;12.18;81.84;96019.84;5073328;28;20078;-53
2022/05/18 04:16:34;;;;;;;7.90;5.97;;;15.80;65.50;;;12.22;81.89;96026.28;5055526;28;20036;-52
2022/05/18 04:19:03;;;;;;;8.30;5.97;;;15.80;65.20;;;12.21;81.52;96026.53;5072079;28;20383;-52
2022/05/18 04:21:32;;;;;;;7.07;5.30;;;15.90;65.20;;;12.12;81.27;96036.94;5073208;28;20031;-53
2022/05/18 04:23:58;;;;;;;9.15;5.18;;;15.90;64.90;;;12.02;81.44;96029.69;5069975;28;20036;-52
2022/05/18 04:26:32;;;;;;;11.75;6.13;;;15.80;64.70;;;12.01;81.25;96030.78;5073080;28;20398;-50
2022/05/18 04:28:58;;;;;;;7.07;5.78;;;15.80;64.90;;;11.95;81.25;96033.69;5071954;28;20545;-51
2022/05/18 04:31:24;;;;;;;11.85;6.20;;;15.80;64.70;;;11.92;81.45;96035.00;5073021;28;20032;-53
2022/05/18 04:33:53;;;;;;;7.63;5.35;;;15.80;64.60;;;11.93;82.43;96039.28;5072743;28;20044;-53
2022/05/18 04:36:22;;;;;;;7.63;5.50;;;15.80;64.80;;;12.12;82.46;96047.63;5073037;28;20043;-54
2022/05/18 04:38:47;;;;;;;7.95;6.47;;;15.80;64.70;;;12.36;82.05;96042.59;5072991;28;20037;-50
2022/05/18 04:41:16;;;;;;;12.82;5.80;;;15.90;64.80;;;12.64;81.36;96043.19;5054848;28;20094;-50
2022/05/18 04:43:42;;;;;;;8.20;6.07;;;16.00;64.80;;;12.94;81.09;96053.06;5055060;28;20025;-50
2022/05/18 04:46:08;;;;;;;9.00;6.15;;;16.20;64.60;;;13.19;79.43;96047.72;5072948;28;20035;-50
2022/05/18 04:48:34;;;;;;;7.90;5.63;;;16.40;64.50;;;13.52;78.37;96061.59;5072788;28;20112;-53
2022/05/18 04:51:04;;;;;;;10.00;5.53;;;16.60;64.30;;;13.78;77.44;96069.56;5054907;28;20078;-51
2022/05/18 04:53:36;;;;;;;7.28;5.35;;;16.70;63.90;;;13.98;75.76;96063.34;5055309;28;20020;-52
2022/05/18 04:56:04;;;;;;;6.05;5.45;;;16.90;63.70;;;14.21;74.56;96068.06;5054531;28;20032;-50
2022/05/18 04:58:30;;;;;;;7.25;5.55;;;17.10;63.30;;;14.41;73.76;96079.75;5054872;28;20032;-51
2022/05/18 05:01:07;;;;;;;8.45;5.45;;;17.30;63.00;;;14.54;73.53;96073.78;5054547;28;20028;-50
2022/05/18 05:03:33;;;;;;;9.13;6.28;;;17.50;62.70;;;14.72;73.35;96075.81;5055136;28;20081;-53
2022/05/18 05:06:00;;;;;;;8.25;6.13;;;17.70;62.40;;;14.98;72.59;96065.72;5037028;28;20044;-52
2022/05/18 05:08:26;;;;;;;8.88;4.82;;;18.00;62.10;;;15.26;72.02;96074.06;5054468;28;20033;-55
2022/05/18 05:10:52;;;;;;;7.63;5.72;;;18.20;61.90;;;15.48;71.25;96079.78;5072529;28;20040;-53
2022/05/18 05:13:17;;;;;;;8.75;5.25;;;18.40;61.50;;;15.71;71.32;96088.97;5072380;28;20082;-54
2022/05/18 05:15:44;;;;;;;6.72;4.82;;;18.70;61.30;;;15.89;70.38;96079.38;5037786;28;20104;-54
2022/05/18 05:18:10;;;;;;;9.57;5.32;;;18.90;60.90;;;16.11;69.26;96086.94;5072377;28;20032;-53
2022/05/18 05:20:36;;;;;;;7.03;4.63;;;19.20;61.30;;;16.33;68.74;96083.69;5054631;28;20032;-51
2022/05/18 05:23:01;;;;;;;6.97;4.95;;;19.50;60.10;;;16.66;67.53;96084.56;5036447;28;20025;-51
2022/05/18 05:25:27;;;;;;;12.20;5.32;;;19.80;59.70;;;16.97;66.94;96092.22;5071989;28;20024;-53
2022/05/18 05:27:56;;;;;;;7.97;4.85;;;20.00;59.20;;;17.24;65.60;96090.75;5070405;28;20025;-53
2022/05/18 05:30:27;;;;;;;6.70;4.78;;;20.30;58.70;;;17.47;64.65;96086.31;5069228;28;20024;-55
2022/05/18 05:33:02;;;;;;;9.50;4.88;;;20.60;58.20;;;17.67;63.68;96094.03;5066929;28;20049;-52
2022/05/18 05:35:30;;;;;;;5.43;4.40;;;20.90;57.50;;;17.74;62.77;96091.75;5052715;28;20037;-52
2022/05/18 05:37:56;;;;;;;6.25;4.43;;;21.20;56.80;;;17.92;62.14;96100.06;5052090;28;20052;-52
2022/05/18 05:40:28;;;;;;;6.50;4.20;;;21.50;56.10;;;18.04;61.69;96106.56;5052129;28;20076;-52
2022/05/18 05:42:53;;;;;;;9.23;4.70;;;21.70;55.40;;;18.24;61.19;96102.69;5051929;28;20020;-51
2022/05/18 05:45:19;;;;;;;5.13;4.63;;;21.90;54.80;;;18.37;60.91;96101.06;5062412;28;20033;-53
2022/05/18 05:47:48;;;;;;;5.07;4.30;;;22.10;54.20;;;18.62;60.35;96112.44;5048527;28;20051;-52
2022/05/18 05:50:23;;;;;;;5.75;4.53;;;22.30;53.80;;;18.80;59.73;96113.41;5054008;28;20024;-54
2022/05/18 05:52:48;;;;;;;6.43;4.20;;;22.50;53.40;;;18.90;58.79;96105.09;5054026;28;20136;-51
2022/05/18 05:55:14;;;;;;;8.15;4.30;;;22.70;52.90;;;19.07;58.91;96113.31;5072072;28;20095;-51
2022/05/18 05:57:40;;;;;;;6.68;4.50;;;22.90;52.30;;;19.19;57.90;96118.97;5053729;28;20025;-50
2022/05/18 06:00:10;;;;;;;5.80;4.35;;;23.10;51.70;;;19.32;57.73;96119.22;5072065;28;20024;-52
2022/05/18 06:02:35;;;;;;;8.07;4.55;;;23.30;51.20;;;19.50;57.53;96115.53;5051264;28;20028;-51
2022/05/18 06:05:03;;;;;;;7.50;4.55;;;23.50;50.90;;;19.75;56.57;96107.94;5051948;28;20033;-51
2022/05/18 06:07:32;;;;;;;5.97;4.47;;;23.70;50.60;;;19.93;56.28;96111.50;5051810;28;20079;-52
2022/05/18 06:09:58;;;;;;;8.93;4.45;;;23.90;50.10;;;20.07;55.63;96114.91;5051779;28;20025;-55
2022/05/18 06:12:25;;;;;;;7.03;4.60;;;24.10;49.60;;;20.27;55.59;96116.22;5051338;28;20023;-56
2022/05/18 06:14:54;;;;;;;6.57;4.78;;;24.30;49.20;;;20.44;54.33;96115.50;5060790;28;20534;-52
2022/05/18 06:17:20;;;;;;;8.48;4.40;;;24.50;48.80;;;20.42;55.22;96106.91;5053805;28;20432;-52
2022/05/18 06:19:52;;;;;;;7.13;4.72;;;24.70;48.40;;;20.62;54.84;96117.19;5072001;28;20543;-54
2022/05/18 06:22:17;;;;;;;5.27;4.40;;;24.90;48.00;;;20.64;54.21;96104.09;5071587;28;20039;-51
2022/05/18 06:24:51;;;;;;;5.82;4.20;;;25.10;47.70;;;20.88;53.76;96114.50;5053833;28;20880;-51
2022/05/18 06:27:18;;;;;;;7.90;4.00;;;25.20;47.10;;;21.08;53.50;96104.94;5071668;28;20424;-51
2022/05/18 06:30:00;;;;;;;10.30;4.45;;;25.50;47.00;;;21.32;52.67;96112.56;5071393;28;20442;-52
2022/05/18 06:32:25;;;;;;;6.15;3.72;;;25.70;46.70;;;21.61;50.71;96111.91;5053208;28;20059;-53
2022/05/18 06:34:51;;;;;;;9.18;4.03;;;25.90;46.00;;;21.94;50.63;96117.56;5074469;28;20029;-55
2022/05/18 06:37:17;;;;;;;7.07;4.10;;;26.20;45.80;;;22.26;49.59;96115.41;5057231;28;20056;-52
2022/05/18 06:39:43;;;;;;;7.00;4.30;;;26.40;45.40;;;22.60;48.92;96111.72;5075228;28;20506;-54
2022/05/18 06:42:08;;;;;;;4.47;3.38;;;26.60;45.00;;;22.81;46.58;96111.75;5075070;28;20074;-53
2022/05/18 06:44:34;;;;;;;5.95;3.63;;;27.00;44.30;;;22.89;47.44;96112.00;5057577;28;20028;-56
2022/05/18 06:47:06;;;;;;;4.78;3.80;;;27.20;43.70;;;23.21;45.76;96108.56;5057148;28;20483;-57
2022/05/18 06:49:32;;;;;;;7.07;3.22;;;27.60;42.90;;;23.48;45.19;96115.38;5057362;28;20047;-57
2022/05/18 06:52:04;;;;;;;7.85;3.85;;;27.80;42.60;;;23.66;44.62;96118.72;5056615;28;20115;-57
2022/05/18 06:54:36;;;;;;;7.75;3.90;;;28.10;41.80;;;23.88;45.30;96101.25;5075220;28;20029;-57
2022/05/18 06:57:03;;;;;;;6.22;3.72;;;28.30;41.60;;;24.16;44.69;96112.28;5057105;28;20120;-56
2022/05/18 06:59:32;;;;;;;7.15;4.00;;;28.60;41.50;;;24.35;43.81;96111.72;5057304;28;20029;-57
2022/05/18 07:02:01;;;;;;;6.28;3.60;;;28.90;40.90;;;24.54;44.50;96122.06;5056801;28;20021;-54
2022/05/18 07:04:33;;;;;;;6.60;4.43;;;29.20;40.60;;;24.55;43.64;96118.19;5074879;28;20438;-54
2022/05/18 07:07:02;;;;;;;7.13;4.40;;;29.50;39.90;;;24.71;43.79;96123.72;5074912;28;20086;-57
2022/05/18 07:09:29;;;;;;;7.85;4.30;;;29.80;39.50;;;24.98;43.44;96110.53;5056906;28;20038;-58
2022/05/18 07:11:55;;;;;;;6.82;4.35;;;30.10;39.10;;;25.09;42.82;96119.81;5056863;28;20025;-58
2022/05/18 07:14:29;;;;;;;6.90;4.45;;;30.40;38.60;;;25.06;43.71;96117.75;5074687;28;20033;-56
2022/05/18 07:16:56;;;;;;;8.13;4.60;;;30.60;37.80;;;25.26;42.86;96125.00;5056941;28;20506;-58
2022/05/18 07:19:27;;;;;;;6.28;4.65;;;30.90;37.60;;;25.48;42.63;96122.88;5056760;28;21276;-54
2022/05/18 07:21:56;;;;;;;6.53;5.18;;;31.10;37.20;;;25.67;41.76;96120.31;5074483;28;20031;-57
2022/05/18 07:24:25;;;;;;;5.00;4.50;;;31.30;36.60;;;25.70;41.61;96119.59;5074595;28;20110;-57
2022/05/18 07:26:54;;;;;;;9.68;5.03;;;31.40;36.00;;;25.77;41.29;96127.19;5074428;28;20028;-57
2022/05/18 07:29:20;;;;;;;6.03;4.60;;;31.40;35.70;;;25.94;40.13;96112.44;5056573;28;20056;-55
2022/05/18 07:34:34;;;;;;;6.32;4.55;;;31.50;34.80;;;26.11;39.64;96128.47;5074065;28;20510;-57
2022/05/18 07:37:01;;;;;;;5.65;4.65;;;31.60;34.40;;;26.02;40.12;96123.19;5074509;28;20029;-54
2022/05/18 07:39:28;;;;;;;6.53;5.13;;;31.70;34.10;;;25.91;40.06;96124.06;5074091;28;20027;-58
2022/05/18 07:42:00;;;;;;;6.65;5.07;;;31.70;33.80;;;26.12;40.56;96124.59;5072645;28;20021;-56
2022/05/18 07:44:29;;;;;;;6.32;4.90;;;31.80;33.70;;;26.32;41.01;96117.28;5056158;28;20029;-57
2022/05/18 07:47:07;;;;;;;5.32;4.78;;;31.90;33.90;;;26.33;41.08;96120.81;5060188;28;20025;-56
2022/05/18 07:49:38;;;;;;;8.60;5.70;;;32.00;34.00;;;26.47;40.69;96115.69;5074082;28;20040;-56
2022/05/18 07:52:05;;;;;;;9.75;5.75;;;32.20;34.00;;;26.23;41.68;96117.47;5040078;28;20025;-57
2022/05/18 07:54:35;;;;;;;6.95;5.55;;;32.20;33.80;;;26.54;40.95;96118.59;5056688;28;20032;-54
2022/05/18 07:57:18;;;;;;;8.40;5.63;;;32.30;33.80;;;26.79;39.64;96113.72;5039476;28;20474;-55
2022/05/18 07:59:47;;;;;;;6.05;5.25;;;32.50;33.70;;;26.74;40.18;96112.06;5039160;28;20035;-53
2022/05/18 08:02:14;;;;;;;5.88;5.13;;;32.70;33.20;;;26.97;39.46;96103.97;5055932;28;20383;-54
2022/05/18 08:04:40;;;;;;;8.38;5.70;;;32.80;33.10;;;27.08;39.26;96103.44;5073998;28;20154;-55
2022/05/18 08:07:05;;;;;;;8.50;5.50;;;32.90;32.70;;;27.22;38.89;96110.00;5074121;28;20404;-54
2022/05/18 08:15:05;;;;;;;9.75;5.05;;;33.00;32.40;;;27.40;39.30;96107.63;5073642;28;20107;-57
2022/05/18 08:15:17;;;;;;;5.35;4.85;;;33.40;32.30;;;27.74;38.86;96113.34;5073379;28;20097;-55
2022/05/18 08:17:44;;;;;;;10.38;5.68;;;33.60;32.10;;;27.75;39.29;96111.41;5073620;28;20035;-54
2022/05/18 08:20:20;;;;;;;8.77;5.25;;;33.70;32.00;;;27.40;40.12;96109.56;5055302;28;20511;-52
2022/05/18 08:22:55;;;;;;;7.80;5.22;;;33.80;31.70;;;27.10;40.19;96101.91;5073411;28;20064;-55
2022/05/18 08:25:20;;;;;;;8.07;5.40;;;33.80;31.30;;;27.28;40.16;96099.56;5055151;28;20124;-56
2022/05/18 08:27:49;;;;;;;8.40;6.05;;;33.80;31.30;;;27.48;39.29;96094.09;5055502;28;20132;-56
2022/05/18 08:30:19;;;;;;;8.05;5.85;;;33.90;31.30;;;27.77;39.98;96098.97;5055456;28;20028;-55
2022/05/18 08:32:45;;;;;;;12.88;6.35;;;33.90;31.40;;;27.75;38.50;96105.94;5071623;22;20410;-51
2022/05/18 08:35:18;;;;;;;9.23;5.55;;;34.00;31.00;;;27.95;39.00;96102.00;5045236;28;20021;-51
2022/05/18 08:37:48;;;;;;;6.60;5.90;;;34.10;31.00;;;28.15;39.04;96097.28;5050895;28;20052;-50
2022/05/18 08:40:37;;;;;;;7.00;6.05;;;34.30;31.00;;;28.12;38.64;96101.53;5065629;28;20028;-53
2022/05/18 08:43:07;;;;;;;8.52;6.10;;;34.40;30.80;;;28.20;38.42;96107.91;5046170;28;20078;-50
2022/05/18 08:46:13;;;;;;;6.53;5.45;;;34.50;30.70;;;28.65;37.56;96105.53;5069487;28;20111;-49
2022/05/18 08:48:52;;;;;;;6.68;5.57;;;34.70;30.70;;;28.87;36.66;96099.19;5071705;28;20029;-50
2022/05/18 08:51:56;;;;;;;5.93;5.07;;;34.90;30.20;;;29.19;36.69;96104.34;5063649;28;20029;-53
2022/05/18 08:55:02;;;;;;;13.30;5.47;;;35.00;30.10;;;29.29;35.92;96103.69;5071713;28;20112;-51
2022/05/18 08:57:39;;;;;;;7.18;5.28;;;35.30;30.00;;;29.28;36.38;96102.09;5072697;28;20093;-48
2022/05/18 09:00:49;;;;;;;6.65;5.60;;;35.40;29.60;;;28.95;35.54;96100.06;5072779;28;20491;-49
2022/05/18 09:04:09;;;;;;;6.25;5.10;;;35.60;29.40;;;28.89;36.97;96099.59;5087276;28;20041;-50
2022/05/18 09:06:52;;;;;;;9.10;5.32;;;35.60;29.00;;;28.60;37.78;96096.44;5071429;28;20021;-51
2022/05/18 09:12:41;;;;;;;7.80;5.30;;;35.50;29.30;;;29.22;36.39;96085.19;5072462;28;19984;-50
2022/05/18 09:15:13;;;;;;;7.75;5.60;;;35.70;29.10;;;29.27;36.78;96086.78;5088223;28;20165;-54
2022/05/18 09:18:00;;;;;;;;;;;35.70;29.00;;;29.25;35.56;96083.66;5088045;28;20021;-50
2022/05/18 09:20:38;;;;;;;8.15;5.60;;;35.80;29.10;;;28.69;36.99;96079.75;5072471;28;20336;-50
2022/05/18 09:23:32;;;;;;;6.57;5.40;;;35.90;28.60;;;28.81;37.23;96090.50;5087283;28;20649;-50
2022/05/18 09:26:33;;;;;;;6.40;5.80;;;35.80;28.50;;;29.08;36.98;96082.25;5071021;28;20032;-49
2022/05/18 09:29:31;;;;;;;6.45;5.30;;;35.80;28.60;;;29.35;36.33;96082.97;5071999;28;20082;-50
2022/05/18 09:32:33;;;;;;;8.18;6.20;;;35.90;28.70;;;28.78;36.77;96080.28;5090642;28;20192;-49
2022/05/18 09:35:18;;;;;;;8.93;5.57;;;36.00;28.20;;;28.82;36.53;96074.84;5090357;28;20040;-51
2022/05/18 09:38:18;;;;;;;6.60;5.00;;;35.90;28.20;;;28.94;36.11;96076.56;5091379;28;20097;-53
2022/05/18 09:40:48;;;;;;;9.27;5.80;;;35.90;28.20;;;28.95;36.83;96078.13;5092417;28;20063;-53
2022/05/18 09:43:31;;;;;;;7.55;5.53;;;36.00;28.20;;;29.03;36.26;96071.63;5092349;28;20031;-49
2022/05/18 09:46:00;;;;;;;8.68;5.60;;;35.90;28.00;;;28.96;36.42;96075.03;5091326;28;20081;-49
2022/05/18 09:48:57;;;;;;;6.93;4.72;;;36.00;28.00;;;29.18;35.60;96072.59;5091273;28;20032;-48
2022/05/18 09:51:26;;;;;;;5.20;4.57;;;36.00;27.70;;;29.60;34.59;96075.03;5092474;28;20063;-49
2022/05/18 09:53:59;;;;;;;11.07;6.13;;;36.00;27.70;;;29.48;35.74;96078.81;5073943;28;20057;-50
2022/05/18 09:56:49;;;;;;;6.57;5.85;;;36.10;27.80;;;29.60;34.86;96071.50;5090977;28;20028;-54
2022/05/18 09:59:24;;;;;;;6.82;4.82;;;36.10;28.00;;;29.45;34.85;96076.81;5091265;28;20032;-49
2022/05/18 10:07:34;;;;;;;7.85;5.10;;;36.30;27.50;;;30.00;33.92;96065.25;5092088;28;20509;-49
2022/05/18 10:10:44;;;;;;;6.30;4.70;;;36.50;27.30;;;30.23;33.42;96069.78;5095495;28;20040;-50
2022/05/18 10:13:17;;;;;;;5.47;4.60;;;36.60;27.30;;;30.38;33.97;96060.47;5078819;28;20036;-52
2022/05/18 10:15:49;;;;;;;5.68;5.03;;;36.80;27.40;;;30.19;33.63;96066.97;5094895;28;20483;-50
2022/05/18 10:18:42;;;;;;;7.90;5.43;;;36.90;27.10;;;30.13;33.84;96063.78;5096170;28;20039;-51
2022/05/18 10:21:17;;;;;;;8.18;4.68;;;36.90;26.80;;;30.47;33.41;96058.19;5077643;28;20505;-50
2022/05/18 10:24:13;;;;;;;6.85;4.50;;;37.00;26.80;;;30.67;33.20;96066.94;5095887;28;20036;-49
2022/05/18 10:26:42;;;;;;;5.28;4.78;;;37.20;26.70;;;30.44;33.30;96058.97;5094828;28;20070;-53
2022/05/18 10:29:23;;;;;;;7.75;4.32;;;37.20;26.40;;;29.77;34.06;96048.16;5094797;28;20509;-51
2022/05/18 10:32:31;;;;;;;8.95;4.20;;;37.30;26.20;;;29.94;32.64;96050.28;5076637;28;20474;-54
2022/05/18 10:34:59;;;;;;;5.07;4.68;;;37.20;26.20;;;30.06;33.77;96051.97;5040219;28;20037;-49
2022/05/18 10:37:40;;;;;;;8.52;5.00;;;37.20;26.10;;;30.39;33.09;96054.59;5068693;28;20101;-49
2022/05/18 10:40:17;;;;;;;5.32;4.80;;;37.30;26.20;;;30.24;33.56;96032.91;5095631;28;20047;-52
2022/05/18 10:42:51;;;;;;;7.65;4.60;;;37.30;26.00;;;30.08;32.98;96036.66;5077342;28;20031;-52
2022/05/18 10:45:26;;;;;;;7.18;4.45;;;37.30;26.00;;;30.40;32.19;96047.94;5094346;28;20040;-52
2022/05/18 10:48:16;;;;;;;7.53;4.75;;;37.40;25.90;;;30.75;31.37;96034.81;5094099;28;20028;-50
2022/05/18 10:50:47;;;;;;;6.50;4.38;;;37.40;25.70;;;31.00;32.15;96040.47;5094514;28;20035;-50
2022/05/18 10:53:15;;;;;;;6.20;4.28;;;37.50;25.80;;;30.39;32.73;96040.06;5094181;28;20020;-49
2022/05/18 10:56:08;;;;;;;8.57;4.13;;;37.70;25.80;;;30.55;32.55;96037.81;5095338;28;20103;-52
2022/05/18 10:58:51;;;;;;;4.35;3.95;;;37.70;25.50;;;30.89;31.34;96032.16;5093874;28;20368;-49
2022/05/18 11:01:34;;;;;;;7.00;4.40;;;37.90;25.40;;;31.22;32.19;96020.09;5077977;28;20044;-50